sensor_id;sensor_type;location;lat;lon;timestamp;temperature;humidity
8231;DHT22;4156;50.908;6.974;2023-07-28T00:01:05;19.00;99.90
8231;DHT22;4156;50.908;6.974;2023-07-28T00:03:30;19.00;99.90
8231;DHT22;4156;50.908;6.974;2023-07-28T00:05:56;18.90;99.90
8231;DHT22;4156;50.908;6.974;2023-07-28T00:08:21;18.90;99.90
8231;DHT22;4156;50.908;6.974;2023-07-28T00:10:47;18.90;99.90
8231;DHT22;4156;50.908;6.974;2023-07-28T00:13:12;18.80;99.90
8231;DHT22;4156;50.908;6.974;2023-07-28T00:15:38;18.90;99.90
8231;DHT22;4156;50.908;6.974;2023-07-28T00:18:03;18.80;99.90
8231;DHT22;4156;50.908;6.974;2023-07-28T00:20:29;18.90;99.90
8231;DHT22;4156;50.908;6.974;2023-07-28T00:22:54;18.80;99.90
8231;DHT22;4156;50.908;6.974;2023-07-28T00:25:20;18.90;99.90
8231;DHT22;4156;50.908;6.974;2023-07-28T00:27:47;18.90;99.90
8231;DHT22;4156;50.908;6.974;2023-07-28T00:30:13;18.90;99.90
8231;DHT22;4156;50.908;6.974;2023-07-28T00:32:38;18.80;99.90
8231;DHT22;4156;50.908;6.974;2023-07-28T00:35:04;18.80;99.90
8231;DHT22;4156;50.908;6.974;2023-07-28T00:37:30;18.80;99.90
8231;DHT22;4156;50.908;6.974;2023-07-28T00:39:55;18.80;99.90
8231;DHT22;4156;50.908;6.974;2023-07-28T00:42:21;18.80;99.90
8231;DHT22;4156;50.908;6.974;2023-07-28T00:44:46;18.80;99.90
8231;DHT22;4156;50.908;6.974;2023-07-28T00:47:12;18.90;99.90
8231;DHT22;4156;50.908;6.974;2023-07-28T00:49:40;18.90;99.90
8231;DHT22;4156;50.908;6.974;2023-07-28T00:52:07;18.90;99.90
8231;DHT22;4156;50.908;6.974;2023-07-28T00:54:34;18.90;99.90
8231;DHT22;4156;50.908;6.974;2023-07-28T00:57:00;18.80;99.90
8231;DHT22;4156;50.908;6.974;2023-07-28T00:59:27;18.80;99.90
8231;DHT22;4156;50.908;6.974;2023-07-28T01:01:52;18.80;99.90
8231;DHT22;4156;50.908;6.974;2023-07-28T01:04:18;18.80;99.90
8231;DHT22;4156;50.908;6.974;2023-07-28T01:09:13;18.80;99.90
8231;DHT22;4156;50.908;6.974;2023-07-28T01:11:53;18.80;99.90
8231;DHT22;4156;50.908;6.974;2023-07-28T01:14:18;18.80;99.90
8231;DHT22;4156;50.908;6.974;2023-07-28T01:16:44;18.80;99.90
8231;DHT22;4156;50.908;6.974;2023-07-28T01:19:10;18.90;99.90
8231;DHT22;4156;50.908;6.974;2023-07-28T01:21:37;18.80;99.90
8231;DHT22;4156;50.908;6.974;2023-07-28T01:24:20;18.80;99.90
8231;DHT22;4156;50.908;6.974;2023-07-28T01:26:48;18.80;99.90
8231;DHT22;4156;50.908;6.974;2023-07-28T01:29:16;18.80;99.90
8231;DHT22;4156;50.908;6.974;2023-07-28T01:31:41;18.80;99.90
8231;DHT22;4156;50.908;6.974;2023-07-28T01:34:07;18.80;99.90
8231;DHT22;4156;50.908;6.974;2023-07-28T01:36:33;18.80;99.90
8231;DHT22;4156;50.908;6.974;2023-07-28T01:38:58;18.80;99.90
8231;DHT22;4156;50.908;6.974;2023-07-28T01:41:24;18.80;99.90
8231;DHT22;4156;50.908;6.974;2023-07-28T01:43:49;18.80;99.90
8231;DHT22;4156;50.908;6.974;2023-07-28T01:46:15;18.80;99.90
8231;DHT22;4156;50.908;6.974;2023-07-28T01:48:40;18.80;99.90
8231;DHT22;4156;50.908;6.974;2023-07-28T01:51:06;18.80;99.90
8231;DHT22;4156;50.908;6.974;2023-07-28T01:53:31;18.80;99.90
8231;DHT22;4156;50.908;6.974;2023-07-28T01:55:57;18.80;99.90
8231;DHT22;4156;50.908;6.974;2023-07-28T01:58:22;18.80;99.90
8231;DHT22;4156;50.908;6.974;2023-07-28T02:00:48;18.80;99.90
8231;DHT22;4156;50.908;6.974;2023-07-28T02:03:13;18.80;99.90
8231;DHT22;4156;50.908;6.974;2023-07-28T02:05:39;18.80;99.90
8231;DHT22;4156;50.908;6.974;2023-07-28T02:08:04;18.80;99.90
8231;DHT22;4156;50.908;6.974;2023-07-28T02:10:30;18.90;99.90
8231;DHT22;4156;50.908;6.974;2023-07-28T02:12:55;18.90;99.90
8231;DHT22;4156;50.908;6.974;2023-07-28T02:15:21;18.90;99.90
8231;DHT22;4156;50.908;6.974;2023-07-28T02:17:47;18.90;99.90
8231;DHT22;4156;50.908;6.974;2023-07-28T02:20:12;18.80;99.90
8231;DHT22;4156;50.908;6.974;2023-07-28T02:22:40;18.80;99.90
8231;DHT22;4156;50.908;6.974;2023-07-28T02:25:06;18.90;99.90
8231;DHT22;4156;50.908;6.974;2023-07-28T02:27:32;18.80;99.90
8231;DHT22;4156;50.908;6.974;2023-07-28T02:29:57;18.80;99.90
8231;DHT22;4156;50.908;6.974;2023-07-28T02:32:23;18.80;99.90
8231;DHT22;4156;50.908;6.974;2023-07-28T02:34:49;18.80;99.90
8231;DHT22;4156;50.908;6.974;2023-07-28T02:37:15;18.80;99.90
8231;DHT22;4156;50.908;6.974;2023-07-28T02:39:41;18.80;99.90
8231;DHT22;4156;50.908;6.974;2023-07-28T02:42:07;18.90;99.90
8231;DHT22;4156;50.908;6.974;2023-07-28T02:44:32;18.90;99.90
8231;DHT22;4156;50.908;6.974;2023-07-28T02:46:58;18.90;99.90
8231;DHT22;4156;50.908;6.974;2023-07-28T02:49:23;18.80;99.90
8231;DHT22;4156;50.908;6.974;2023-07-28T02:51:49;18.80;99.90
8231;DHT22;4156;50.908;6.974;2023-07-28T02:54:14;18.80;99.90
8231;DHT22;4156;50.908;6.974;2023-07-28T02:56:40;18.80;99.90
8231;DHT22;4156;50.908;6.974;2023-07-28T02:59:05;18.80;99.90
8231;DHT22;4156;50.908;6.974;2023-07-28T03:01:31;18.90;99.90
8231;DHT22;4156;50.908;6.974;2023-07-28T03:04:01;18.80;99.90
8231;DHT22;4156;50.908;6.974;2023-07-28T03:06:27;18.80;99.90
8231;DHT22;4156;50.908;6.974;2023-07-28T03:08:52;18.80;99.90
8231;DHT22;4156;50.908;6.974;2023-07-28T03:11:18;18.80;99.90
8231;DHT22;4156;50.908;6.974;2023-07-28T03:13:43;18.80;99.90
8231;DHT22;4156;50.908;6.974;2023-07-28T03:16:09;18.80;99.90
8231;DHT22;4156;50.908;6.974;2023-07-28T03:18:35;18.80;99.90
8231;DHT22;4156;50.908;6.974;2023-07-28T03:21:01;18.80;99.90
8231;DHT22;4156;50.908;6.974;2023-07-28T03:23:26;18.80;99.90
8231;DHT22;4156;50.908;6.974;2023-07-28T03:25:52;18.80;99.90
8231;DHT22;4156;50.908;6.974;2023-07-28T03:28:18;18.80;99.90
8231;DHT22;4156;50.908;6.974;2023-07-28T03:30:43;18.80;99.90
8231;DHT22;4156;50.908;6.974;2023-07-28T03:33:09;18.80;99.90
8231;DHT22;4156;50.908;6.974;2023-07-28T03:35:34;18.80;99.90
8231;DHT22;4156;50.908;6.974;2023-07-28T03:38:00;18.80;99.90
8231;DHT22;4156;50.908;6.974;2023-07-28T03:40:25;18.80;99.90
8231;DHT22;4156;50.908;6.974;2023-07-28T03:42:52;18.80;99.90
8231;DHT22;4156;50.908;6.974;2023-07-28T03:45:18;18.80;99.90
8231;DHT22;4156;50.908;6.974;2023-07-28T03:47:43;18.90;99.90
8231;DHT22;4156;50.908;6.974;2023-07-28T03:50:09;18.80;99.90
8231;DHT22;4156;50.908;6.974;2023-07-28T03:52:34;18.80;99.90
8231;DHT22;4156;50.908;6.974;2023-07-28T03:55:00;18.90;99.90
8231;DHT22;4156;50.908;6.974;2023-07-28T03:57:26;18.90;99.90
8231;DHT22;4156;50.908;6.974;2023-07-28T03:59:51;18.90;99.90
8231;DHT22;4156;50.908;6.974;2023-07-28T04:02:17;18.90;99.90
8231;DHT22;4156;50.908;6.974;2023-07-28T04:04:42;18.90;99.90
8231;DHT22;4156;50.908;6.974;2023-07-28T04:07:08;18.90;99.90
8231;DHT22;4156;50.908;6.974;2023-07-28T04:09:33;18.90;99.90
8231;DHT22;4156;50.908;6.974;2023-07-28T04:11:59;18.90;99.90
8231;DHT22;4156;50.908;6.974;2023-07-28T04:14:25;18.80;99.90
8231;DHT22;4156;50.908;6.974;2023-07-28T04:16:50;18.90;99.90
8231;DHT22;4156;50.908;6.974;2023-07-28T04:19:16;18.80;99.90
8231;DHT22;4156;50.908;6.974;2023-07-28T04:21:41;18.80;99.90
8231;DHT22;4156;50.908;6.974;2023-07-28T04:24:07;18.80;99.90
8231;DHT22;4156;50.908;6.974;2023-07-28T04:26:33;18.80;99.90
8231;DHT22;4156;50.908;6.974;2023-07-28T04:28:59;18.80;99.90
8231;DHT22;4156;50.908;6.974;2023-07-28T04:31:24;18.80;99.90
8231;DHT22;4156;50.908;6.974;2023-07-28T04:33:50;18.90;99.90
8231;DHT22;4156;50.908;6.974;2023-07-28T04:36:15;19.00;99.90
8231;DHT22;4156;50.908;6.974;2023-07-28T04:38:41;19.00;99.90
8231;DHT22;4156;50.908;6.974;2023-07-28T04:41:07;18.90;99.90
8231;DHT22;4156;50.908;6.974;2023-07-28T04:43:32;18.90;99.90
8231;DHT22;4156;50.908;6.974;2023-07-28T04:45:58;18.90;99.90
8231;DHT22;4156;50.908;6.974;2023-07-28T04:48:23;18.90;99.90
8231;DHT22;4156;50.908;6.974;2023-07-28T04:50:49;19.00;99.90
8231;DHT22;4156;50.908;6.974;2023-07-28T04:53:14;18.90;99.90
8231;DHT22;4156;50.908;6.974;2023-07-28T04:55:40;19.00;99.90
8231;DHT22;4156;50.908;6.974;2023-07-28T04:58:05;18.90;99.90
8231;DHT22;4156;50.908;6.974;2023-07-28T05:00:31;19.10;99.90
8231;DHT22;4156;50.908;6.974;2023-07-28T05:02:56;19.10;99.90
8231;DHT22;4156;50.908;6.974;2023-07-28T05:05:22;19.10;99.90
8231;DHT22;4156;50.908;6.974;2023-07-28T05:07:48;19.10;99.90
8231;DHT22;4156;50.908;6.974;2023-07-28T05:10:14;19.10;99.90
8231;DHT22;4156;50.908;6.974;2023-07-28T05:12:39;19.10;99.90
8231;DHT22;4156;50.908;6.974;2023-07-28T05:15:05;19.10;99.90
8231;DHT22;4156;50.908;6.974;2023-07-28T05:17:36;19.00;99.90
8231;DHT22;4156;50.908;6.974;2023-07-28T05:20:01;19.00;99.90
8231;DHT22;4156;50.908;6.974;2023-07-28T05:22:27;19.00;99.90
8231;DHT22;4156;50.908;6.974;2023-07-28T05:24:52;19.00;99.90
8231;DHT22;4156;50.908;6.974;2023-07-28T05:27:18;19.00;99.90
8231;DHT22;4156;50.908;6.974;2023-07-28T05:29:44;19.00;99.90
8231;DHT22;4156;50.908;6.974;2023-07-28T05:32:09;19.00;99.90
8231;DHT22;4156;50.908;6.974;2023-07-28T05:34:35;19.00;99.90
8231;DHT22;4156;50.908;6.974;2023-07-28T05:37:00;19.10;99.90
8231;DHT22;4156;50.908;6.974;2023-07-28T05:39:26;19.10;99.90
8231;DHT22;4156;50.908;6.974;2023-07-28T05:41:51;19.10;99.90
8231;DHT22;4156;50.908;6.974;2023-07-28T05:44:17;19.10;99.90
8231;DHT22;4156;50.908;6.974;2023-07-28T05:46:42;19.10;99.90
8231;DHT22;4156;50.908;6.974;2023-07-28T05:49:08;19.10;99.90
8231;DHT22;4156;50.908;6.974;2023-07-28T05:51:33;19.10;99.90
8231;DHT22;4156;50.908;6.974;2023-07-28T05:53:59;19.10;99.90
8231;DHT22;4156;50.908;6.974;2023-07-28T05:56:25;19.10;99.90
8231;DHT22;4156;50.908;6.974;2023-07-28T05:58:51;19.10;99.90
8231;DHT22;4156;50.908;6.974;2023-07-28T06:01:16;19.10;99.90
8231;DHT22;4156;50.908;6.974;2023-07-28T06:03:43;19.10;99.90
8231;DHT22;4156;50.908;6.974;2023-07-28T06:06:08;19.10;99.90
8231;DHT22;4156;50.908;6.974;2023-07-28T06:08:34;19.10;99.90
8231;DHT22;4156;50.908;6.974;2023-07-28T06:11:02;19.20;99.90
8231;DHT22;4156;50.908;6.974;2023-07-28T06:13:28;19.10;99.90
8231;DHT22;4156;50.908;6.974;2023-07-28T06:15:53;19.10;99.90
8231;DHT22;4156;50.908;6.974;2023-07-28T06:18:23;19.20;99.90
8231;DHT22;4156;50.908;6.974;2023-07-28T06:20:49;19.20;99.90
8231;DHT22;4156;50.908;6.974;2023-07-28T06:23:15;19.20;99.90
8231;DHT22;4156;50.908;6.974;2023-07-28T06:25:40;19.20;99.90
8231;DHT22;4156;50.908;6.974;2023-07-28T06:28:10;19.30;99.90
8231;DHT22;4156;50.908;6.974;2023-07-28T06:30:36;19.30;99.90
8231;DHT22;4156;50.908;6.974;2023-07-28T06:33:03;19.30;99.90
8231;DHT22;4156;50.908;6.974;2023-07-28T06:35:28;19.30;99.90
8231;DHT22;4156;50.908;6.974;2023-07-28T06:37:54;19.30;99.90
8231;DHT22;4156;50.908;6.974;2023-07-28T06:40:20;19.30;99.90
8231;DHT22;4156;50.908;6.974;2023-07-28T06:42:45;19.30;99.90
8231;DHT22;4156;50.908;6.974;2023-07-28T06:45:12;19.40;99.90
8231;DHT22;4156;50.908;6.974;2023-07-28T06:47:37;19.30;99.90
8231;DHT22;4156;50.908;6.974;2023-07-28T06:50:03;19.30;99.90
8231;DHT22;4156;50.908;6.974;2023-07-28T06:52:30;19.40;99.90
8231;DHT22;4156;50.908;6.974;2023-07-28T06:54:56;19.40;99.90
8231;DHT22;4156;50.908;6.974;2023-07-28T06:57:21;19.40;99.90
8231;DHT22;4156;50.908;6.974;2023-07-28T06:59:48;19.40;99.90
8231;DHT22;4156;50.908;6.974;2023-07-28T07:02:13;19.50;99.90
8231;DHT22;4156;50.908;6.974;2023-07-28T07:04:39;19.50;99.90
8231;DHT22;4156;50.908;6.974;2023-07-28T07:07:04;19.50;99.90
8231;DHT22;4156;50.908;6.974;2023-07-28T07:09:30;19.40;99.90
8231;DHT22;4156;50.908;6.974;2023-07-28T07:11:56;19.40;99.90
8231;DHT22;4156;50.908;6.974;2023-07-28T07:14:21;19.40;99.90
8231;DHT22;4156;50.908;6.974;2023-07-28T07:16:48;19.40;99.90
8231;DHT22;4156;50.908;6.974;2023-07-28T07:19:13;19.40;99.90
8231;DHT22;4156;50.908;6.974;2023-07-28T07:21:41;19.50;99.90
8231;DHT22;4156;50.908;6.974;2023-07-28T07:24:07;19.50;99.90
8231;DHT22;4156;50.908;6.974;2023-07-28T07:26:32;19.50;99.90
8231;DHT22;4156;50.908;6.974;2023-07-28T07:28:58;19.50;99.90
8231;DHT22;4156;50.908;6.974;2023-07-28T07:31:24;19.50;99.90
8231;DHT22;4156;50.908;6.974;2023-07-28T07:33:49;19.50;99.90
8231;DHT22;4156;50.908;6.974;2023-07-28T07:36:16;19.60;99.90
8231;DHT22;4156;50.908;6.974;2023-07-28T07:38:42;19.60;99.90
8231;DHT22;4156;50.908;6.974;2023-07-28T07:41:08;19.60;99.90
8231;DHT22;4156;50.908;6.974;2023-07-28T07:43:36;19.60;99.90
8231;DHT22;4156;50.908;6.974;2023-07-28T07:46:01;19.60;99.90
8231;DHT22;4156;50.908;6.974;2023-07-28T07:48:27;19.60;99.90
8231;DHT22;4156;50.908;6.974;2023-07-28T07:50:52;19.70;99.90
8231;DHT22;4156;50.908;6.974;2023-07-28T07:53:18;19.60;99.90
8231;DHT22;4156;50.908;6.974;2023-07-28T07:55:44;20.00;99.90
8231;DHT22;4156;50.908;6.974;2023-07-28T07:58:09;20.10;99.90
8231;DHT22;4156;50.908;6.974;2023-07-28T08:00:37;19.70;99.90
8231;DHT22;4156;50.908;6.974;2023-07-28T08:03:04;19.70;99.90
8231;DHT22;4156;50.908;6.974;2023-07-28T08:05:30;19.60;99.90
8231;DHT22;4156;50.908;6.974;2023-07-28T08:07:56;19.70;99.90
8231;DHT22;4156;50.908;6.974;2023-07-28T08:10:21;19.90;99.90
8231;DHT22;4156;50.908;6.974;2023-07-28T08:12:47;19.70;99.90
8231;DHT22;4156;50.908;6.974;2023-07-28T08:15:13;19.70;99.90
8231;DHT22;4156;50.908;6.974;2023-07-28T08:17:39;19.70;99.90
8231;DHT22;4156;50.908;6.974;2023-07-28T08:20:06;19.90;99.90
8231;DHT22;4156;50.908;6.974;2023-07-28T08:22:32;19.70;99.90
8231;DHT22;4156;50.908;6.974;2023-07-28T08:24:57;19.80;99.90
8231;DHT22;4156;50.908;6.974;2023-07-28T08:27:23;19.70;99.90
8231;DHT22;4156;50.908;6.974;2023-07-28T08:29:49;19.80;99.90
8231;DHT22;4156;50.908;6.974;2023-07-28T08:32:15;19.80;99.90
8231;DHT22;4156;50.908;6.974;2023-07-28T08:34:40;19.80;99.90
8231;DHT22;4156;50.908;6.974;2023-07-28T08:37:06;19.90;99.90
8231;DHT22;4156;50.908;6.974;2023-07-28T08:39:32;20.00;99.90
8231;DHT22;4156;50.908;6.974;2023-07-28T08:42:00;19.90;99.90
8231;DHT22;4156;50.908;6.974;2023-07-28T08:44:26;19.80;99.90
8231;DHT22;4156;50.908;6.974;2023-07-28T08:46:52;19.90;99.90
8231;DHT22;4156;50.908;6.974;2023-07-28T08:49:17;20.00;99.90
8231;DHT22;4156;50.908;6.974;2023-07-28T08:51:51;20.00;99.90
8231;DHT22;4156;50.908;6.974;2023-07-28T08:54:17;20.00;99.90
8231;DHT22;4156;50.908;6.974;2023-07-28T08:56:43;20.00;99.90
8231;DHT22;4156;50.908;6.974;2023-07-28T08:59:09;20.10;99.90
8231;DHT22;4156;50.908;6.974;2023-07-28T09:01:41;20.50;99.90
8231;DHT22;4156;50.908;6.974;2023-07-28T09:04:10;20.10;99.90
8231;DHT22;4156;50.908;6.974;2023-07-28T09:06:36;20.10;99.90
8231;DHT22;4156;50.908;6.974;2023-07-28T09:09:02;20.20;99.90
8231;DHT22;4156;50.908;6.974;2023-07-28T09:11:31;20.20;99.90
8231;DHT22;4156;50.908;6.974;2023-07-28T09:13:56;20.30;99.90
8231;DHT22;4156;50.908;6.974;2023-07-28T09:16:24;20.50;99.90
8231;DHT22;4156;50.908;6.974;2023-07-28T09:18:51;20.40;99.90
8231;DHT22;4156;50.908;6.974;2023-07-28T09:21:18;20.40;99.90
8231;DHT22;4156;50.908;6.974;2023-07-28T09:23:46;20.40;99.90
8231;DHT22;4156;50.908;6.974;2023-07-28T09:26:12;20.40;99.90
8231;DHT22;4156;50.908;6.974;2023-07-28T09:28:39;20.40;99.90
8231;DHT22;4156;50.908;6.974;2023-07-28T09:31:05;20.40;99.90
8231;DHT22;4156;50.908;6.974;2023-07-28T09:33:32;20.60;99.90
8231;DHT22;4156;50.908;6.974;2023-07-28T09:36:13;20.50;99.90
8231;DHT22;4156;50.908;6.974;2023-07-28T09:38:40;20.50;99.90
8231;DHT22;4156;50.908;6.974;2023-07-28T09:41:08;20.50;99.90
8231;DHT22;4156;50.908;6.974;2023-07-28T09:43:39;20.50;99.90
8231;DHT22;4156;50.908;6.974;2023-07-28T09:46:07;20.50;99.90
8231;DHT22;4156;50.908;6.974;2023-07-28T09:48:34;20.60;99.90
8231;DHT22;4156;50.908;6.974;2023-07-28T09:51:04;20.60;99.90
8231;DHT22;4156;50.908;6.974;2023-07-28T09:53:33;20.60;99.90
8231;DHT22;4156;50.908;6.974;2023-07-28T09:56:01;20.60;99.90
8231;DHT22;4156;50.908;6.974;2023-07-28T09:58:33;20.80;99.90
8231;DHT22;4156;50.908;6.974;2023-07-28T10:01:01;20.60;99.90
8231;DHT22;4156;50.908;6.974;2023-07-28T10:03:28;20.60;99.90
8231;DHT22;4156;50.908;6.974;2023-07-28T10:05:54;20.60;99.90
8231;DHT22;4156;50.908;6.974;2023-07-28T10:08:20;20.60;99.90
8231;DHT22;4156;50.908;6.974;2023-07-28T10:10:46;20.60;99.90
8231;DHT22;4156;50.908;6.974;2023-07-28T10:13:20;20.70;99.90
8231;DHT22;4156;50.908;6.974;2023-07-28T10:15:46;20.70;99.90
8231;DHT22;4156;50.908;6.974;2023-07-28T10:18:13;20.80;99.90
8231;DHT22;4156;50.908;6.974;2023-07-28T10:20:40;20.70;99.90
8231;DHT22;4156;50.908;6.974;2023-07-28T10:23:14;20.70;99.90
8231;DHT22;4156;50.908;6.974;2023-07-28T10:25:41;20.80;99.90
8231;DHT22;4156;50.908;6.974;2023-07-28T10:28:24;20.80;99.90
8231;DHT22;4156;50.908;6.974;2023-07-28T10:30:54;20.80;99.90
8231;DHT22;4156;50.908;6.974;2023-07-28T10:33:35;20.80;99.90
8231;DHT22;4156;50.908;6.974;2023-07-28T10:41:29;20.90;99.90
8231;DHT22;4156;50.908;6.974;2023-07-28T10:43:56;20.90;99.90
8231;DHT22;4156;50.908;6.974;2023-07-28T10:46:21;20.90;99.90
8231;DHT22;4156;50.908;6.974;2023-07-28T10:48:48;20.90;99.90
8231;DHT22;4156;50.908;6.974;2023-07-28T10:51:25;20.90;99.90
8231;DHT22;4156;50.908;6.974;2023-07-28T10:53:56;20.90;99.90
8231;DHT22;4156;50.908;6.974;2023-07-28T10:56:23;20.90;99.90
8231;DHT22;4156;50.908;6.974;2023-07-28T10:59:00;21.00;99.90
8231;DHT22;4156;50.908;6.974;2023-07-28T11:01:36;21.00;99.90
8231;DHT22;4156;50.908;6.974;2023-07-28T11:06:43;21.00;99.90
8231;DHT22;4156;50.908;6.974;2023-07-28T11:09:09;21.10;99.90
8231;DHT22;4156;50.908;6.974;2023-07-28T11:11:36;21.10;99.90
8231;DHT22;4156;50.908;6.974;2023-07-28T11:14:07;21.10;99.90
8231;DHT22;4156;50.908;6.974;2023-07-28T11:16:37;21.10;99.90
8231;DHT22;4156;50.908;6.974;2023-07-28T11:19:07;21.10;99.90
8231;DHT22;4156;50.908;6.974;2023-07-28T11:21:39;21.20;99.90
8231;DHT22;4156;50.908;6.974;2023-07-28T11:24:07;21.20;99.90
8231;DHT22;4156;50.908;6.974;2023-07-28T11:26:37;21.20;99.90
8231;DHT22;4156;50.908;6.974;2023-07-28T11:29:03;21.20;99.90
8231;DHT22;4156;50.908;6.974;2023-07-28T11:31:29;21.20;99.90
8231;DHT22;4156;50.908;6.974;2023-07-28T11:33:55;21.20;99.90
8231;DHT22;4156;50.908;6.974;2023-07-28T11:36:28;21.60;99.90
8231;DHT22;4156;50.908;6.974;2023-07-28T11:38:55;21.30;99.90
8231;DHT22;4156;50.908;6.974;2023-07-28T11:41:21;21.20;99.90
8231;DHT22;4156;50.908;6.974;2023-07-28T11:43:48;21.20;99.90
8231;DHT22;4156;50.908;6.974;2023-07-28T11:46:37;21.20;99.90
8231;DHT22;4156;50.908;6.974;2023-07-28T11:49:15;21.30;99.90
8231;DHT22;4156;50.908;6.974;2023-07-28T11:51:54;21.30;99.90
8231;DHT22;4156;50.908;6.974;2023-07-28T11:54:24;21.30;99.90
8231;DHT22;4156;50.908;6.974;2023-07-28T11:56:53;21.30;99.90
8231;DHT22;4156;50.908;6.974;2023-07-28T11:59:20;21.70;99.90
8231;DHT22;4156;50.908;6.974;2023-07-28T12:01:57;21.30;99.90
8231;DHT22;4156;50.908;6.974;2023-07-28T12:04:31;21.30;99.90
8231;DHT22;4156;50.908;6.974;2023-07-28T12:07:14;21.30;99.90
8231;DHT22;4156;50.908;6.974;2023-07-28T12:12:24;21.30;99.90
8231;DHT22;4156;50.908;6.974;2023-07-28T12:14:52;21.40;99.90
8231;DHT22;4156;50.908;6.974;2023-07-28T12:17:19;21.40;99.90
8231;DHT22;4156;50.908;6.974;2023-07-28T12:20:05;21.40;99.90
8231;DHT22;4156;50.908;6.974;2023-07-28T12:22:41;21.40;99.90
8231;DHT22;4156;50.908;6.974;2023-07-28T12:25:08;21.40;99.90
8231;DHT22;4156;50.908;6.974;2023-07-28T12:27:34;21.50;99.90
8231;DHT22;4156;50.908;6.974;2023-07-28T12:30:00;21.50;99.90
8231;DHT22;4156;50.908;6.974;2023-07-28T12:32:27;21.50;99.90
8231;DHT22;4156;50.908;6.974;2023-07-28T12:34:52;21.50;99.90
8231;DHT22;4156;50.908;6.974;2023-07-28T12:37:19;21.50;99.90
8231;DHT22;4156;50.908;6.974;2023-07-28T12:39:45;21.60;99.90
8231;DHT22;4156;50.908;6.974;2023-07-28T12:42:11;21.60;99.90
8231;DHT22;4156;50.908;6.974;2023-07-28T12:44:38;21.60;99.90
8231;DHT22;4156;50.908;6.974;2023-07-28T12:47:05;21.60;99.90
8231;DHT22;4156;50.908;6.974;2023-07-28T12:49:31;21.60;99.90
8231;DHT22;4156;50.908;6.974;2023-07-28T12:51:58;21.60;99.90
8231;DHT22;4156;50.908;6.974;2023-07-28T12:54:24;21.60;99.90
8231;DHT22;4156;50.908;6.974;2023-07-28T12:56:51;21.70;99.90
8231;DHT22;4156;50.908;6.974;2023-07-28T12:59:17;21.60;99.90
8231;DHT22;4156;50.908;6.974;2023-07-28T13:01:42;21.70;99.90
8231;DHT22;4156;50.908;6.974;2023-07-28T13:04:08;21.70;99.90
8231;DHT22;4156;50.908;6.974;2023-07-28T13:06:34;21.70;99.90
8231;DHT22;4156;50.908;6.974;2023-07-28T13:08:59;21.70;99.90
8231;DHT22;4156;50.908;6.974;2023-07-28T13:11:25;21.70;99.90
8231;DHT22;4156;50.908;6.974;2023-07-28T13:13:50;21.70;99.90
8231;DHT22;4156;50.908;6.974;2023-07-28T13:16:16;21.70;99.90
8231;DHT22;4156;50.908;6.974;2023-07-28T13:18:43;21.80;99.90
8231;DHT22;4156;50.908;6.974;2023-07-28T13:21:09;21.80;99.90
8231;DHT22;4156;50.908;6.974;2023-07-28T13:23:36;21.80;99.90
8231;DHT22;4156;50.908;6.974;2023-07-28T13:26:02;21.90;99.90
8231;DHT22;4156;50.908;6.974;2023-07-28T13:28:29;21.90;99.90
8231;DHT22;4156;50.908;6.974;2023-07-28T13:30:55;21.80;99.90
8231;DHT22;4156;50.908;6.974;2023-07-28T13:33:21;21.90;99.90
8231;DHT22;4156;50.908;6.974;2023-07-28T13:35:47;21.90;99.90
8231;DHT22;4156;50.908;6.974;2023-07-28T13:38:12;21.90;99.90
8231;DHT22;4156;50.908;6.974;2023-07-28T13:40:38;21.90;99.90
8231;DHT22;4156;50.908;6.974;2023-07-28T13:43:03;22.00;99.90
8231;DHT22;4156;50.908;6.974;2023-07-28T13:45:29;22.00;99.90
8231;DHT22;4156;50.908;6.974;2023-07-28T13:47:55;22.00;99.90
8231;DHT22;4156;50.908;6.974;2023-07-28T13:50:20;22.00;99.90
8231;DHT22;4156;50.908;6.974;2023-07-28T13:52:46;22.00;99.90
8231;DHT22;4156;50.908;6.974;2023-07-28T13:55:12;22.00;99.90
8231;DHT22;4156;50.908;6.974;2023-07-28T13:57:38;21.90;99.90
8231;DHT22;4156;50.908;6.974;2023-07-28T14:00:05;22.00;99.90
8231;DHT22;4156;50.908;6.974;2023-07-28T14:02:37;22.00;99.90
8231;DHT22;4156;50.908;6.974;2023-07-28T14:05:03;22.00;99.90
8231;DHT22;4156;50.908;6.974;2023-07-28T14:07:29;22.10;99.90
8231;DHT22;4156;50.908;6.974;2023-07-28T14:09:54;22.00;99.90
8231;DHT22;4156;50.908;6.974;2023-07-28T14:12:20;22.10;99.90
8231;DHT22;4156;50.908;6.974;2023-07-28T14:14:45;22.10;99.90
8231;DHT22;4156;50.908;6.974;2023-07-28T14:17:11;22.10;99.90
8231;DHT22;4156;50.908;6.974;2023-07-28T14:19:38;22.20;99.90
8231;DHT22;4156;50.908;6.974;2023-07-28T14:22:04;22.10;99.90
8231;DHT22;4156;50.908;6.974;2023-07-28T14:24:30;22.10;99.90
8231;DHT22;4156;50.908;6.974;2023-07-28T14:26:55;22.10;99.90
8231;DHT22;4156;50.908;6.974;2023-07-28T14:29:21;22.20;99.90
8231;DHT22;4156;50.908;6.974;2023-07-28T14:31:47;22.20;99.90
8231;DHT22;4156;50.908;6.974;2023-07-28T14:34:12;22.20;99.90
8231;DHT22;4156;50.908;6.974;2023-07-28T14:36:38;22.20;99.90
8231;DHT22;4156;50.908;6.974;2023-07-28T14:39:04;22.20;99.90
8231;DHT22;4156;50.908;6.974;2023-07-28T14:41:30;22.20;99.90
8231;DHT22;4156;50.908;6.974;2023-07-28T14:43:56;22.20;99.90
8231;DHT22;4156;50.908;6.974;2023-07-28T14:46:21;22.20;99.90
8231;DHT22;4156;50.908;6.974;2023-07-28T14:48:48;22.30;99.90
8231;DHT22;4156;50.908;6.974;2023-07-28T14:51:15;22.30;99.90
8231;DHT22;4156;50.908;6.974;2023-07-28T14:53:41;22.40;99.90
8231;DHT22;4156;50.908;6.974;2023-07-28T14:56:07;22.30;99.90
8231;DHT22;4156;50.908;6.974;2023-07-28T14:58:33;22.30;99.90
8231;DHT22;4156;50.908;6.974;2023-07-28T15:00:59;22.30;99.90
8231;DHT22;4156;50.908;6.974;2023-07-28T15:03:27;22.30;99.90
8231;DHT22;4156;50.908;6.974;2023-07-28T15:05:53;22.40;99.90
8231;DHT22;4156;50.908;6.974;2023-07-28T15:08:20;22.30;99.90
8231;DHT22;4156;50.908;6.974;2023-07-28T15:10:45;22.30;99.90
8231;DHT22;4156;50.908;6.974;2023-07-28T15:13:11;22.30;99.90
8231;DHT22;4156;50.908;6.974;2023-07-28T15:15:36;22.30;99.90
8231;DHT22;4156;50.908;6.974;2023-07-28T15:18:02;22.40;99.90
8231;DHT22;4156;50.908;6.974;2023-07-28T15:20:28;22.40;99.90
8231;DHT22;4156;50.908;6.974;2023-07-28T15:22:53;22.40;99.90
8231;DHT22;4156;50.908;6.974;2023-07-28T15:25:19;22.80;99.90
8231;DHT22;4156;50.908;6.974;2023-07-28T15:27:44;22.40;99.90
8231;DHT22;4156;50.908;6.974;2023-07-28T15:30:10;22.50;99.90
8231;DHT22;4156;50.908;6.974;2023-07-28T15:32:37;22.40;99.90
8231;DHT22;4156;50.908;6.974;2023-07-28T15:35:03;22.40;99.90
8231;DHT22;4156;50.908;6.974;2023-07-28T15:37:29;22.40;99.90
8231;DHT22;4156;50.908;6.974;2023-07-28T15:39:55;22.40;99.90
8231;DHT22;4156;50.908;6.974;2023-07-28T15:42:21;22.50;99.90
8231;DHT22;4156;50.908;6.974;2023-07-28T15:44:47;22.50;99.90
8231;DHT22;4156;50.908;6.974;2023-07-28T15:47:12;22.50;99.90
8231;DHT22;4156;50.908;6.974;2023-07-28T15:49:38;22.50;99.90
8231;DHT22;4156;50.908;6.974;2023-07-28T15:52:04;22.50;99.90
8231;DHT22;4156;50.908;6.974;2023-07-28T15:54:29;22.50;99.90
8231;DHT22;4156;50.908;6.974;2023-07-28T15:56:55;22.60;99.90
8231;DHT22;4156;50.908;6.974;2023-07-28T15:59:20;22.60;99.90
8231;DHT22;4156;50.908;6.974;2023-07-28T16:01:46;22.60;99.90
8231;DHT22;4156;50.908;6.974;2023-07-28T16:04:11;22.60;99.90
8231;DHT22;4156;50.908;6.974;2023-07-28T16:06:37;22.60;99.90
8231;DHT22;4156;50.908;6.974;2023-07-28T16:09:02;22.70;99.90
8231;DHT22;4156;50.908;6.974;2023-07-28T16:11:32;22.60;99.90